sensor_id;sensor_type;location;lat;lon;timestamp;P1;durP1;ratioP1;P2;durP2;ratioP2
61840;SDS011;47773;53.174;6.614;2022-11-02T00:01:43;12.20;;;1.52;;
61840;SDS011;47773;53.174;6.614;2022-11-02T00:04:09;8.13;;;1.25;;
61840;SDS011;47773;53.174;6.614;2022-11-02T00:06:35;6.72;;;1.40;;
61840;SDS011;47773;53.174;6.614;2022-11-02T00:09:00;8.98;;;1.38;;
61840;SDS011;47773;53.174;6.614;2022-11-02T00:11:26;8.20;;;1.35;;
61840;SDS011;47773;53.174;6.614;2022-11-02T00:13:52;8.40;;;1.30;;
61840;SDS011;47773;53.174;6.614;2022-11-02T00:16:18;4.80;;;0.90;;
61840;SDS011;47773;53.174;6.614;2022-11-02T00:18:45;2.55;;;0.70;;
61840;SDS011;47773;53.174;6.614;2022-11-02T00:21:13;8.38;;;1.00;;
61840;SDS011;47773;53.174;6.614;2022-11-02T00:23:41;9.63;;;0.93;;
61840;SDS011;47773;53.174;6.614;2022-11-02T00:26:07;7.70;;;1.20;;
61840;SDS011;47773;53.174;6.614;2022-11-02T00:28:33;3.83;;;0.70;;
61840;SDS011;47773;53.174;6.614;2022-11-02T00:30:59;6.32;;;0.75;;
61840;SDS011;47773;53.174;6.614;2022-11-02T00:33:25;3.42;;;0.68;;
61840;SDS011;47773;53.174;6.614;2022-11-02T00:35:51;6.68;;;1.08;;
61840;SDS011;47773;53.174;6.614;2022-11-02T00:38:18;6.75;;;1.20;;
61840;SDS011;47773;53.174;6.614;2022-11-02T00:40:44;6.15;;;0.95;;
61840;SDS011;47773;53.174;6.614;2022-11-02T00:43:10;8.13;;;1.30;;
61840;SDS011;47773;53.174;6.614;2022-11-02T00:45:35;5.22;;;0.60;;
61840;SDS011;47773;53.174;6.614;2022-11-02T00:48:01;3.50;;;0.68;;
61840;SDS011;47773;53.174;6.614;2022-11-02T00:50:27;4.22;;;0.73;;
61840;SDS011;47773;53.174;6.614;2022-11-02T00:52:52;5.50;;;0.80;;
61840;SDS011;47773;53.174;6.614;2022-11-02T00:55:18;3.28;;;0.85;;
61840;SDS011;47773;53.174;6.614;2022-11-02T00:57:44;6.63;;;0.90;;
61840;SDS011;47773;53.174;6.614;2022-11-02T01:00:10;6.55;;;0.90;;
61840;SDS011;47773;53.174;6.614;2022-11-02T01:02:36;4.72;;;0.90;;
61840;SDS011;47773;53.174;6.614;2022-11-02T01:05:03;4.95;;;0.90;;
61840;SDS011;47773;53.174;6.614;2022-11-02T01:07:29;3.50;;;0.60;;
61840;SDS011;47773;53.174;6.614;2022-11-02T01:09:55;6.65;;;0.82;;
61840;SDS011;47773;53.174;6.614;2022-11-02T01:12:21;4.40;;;0.80;;
61840;SDS011;47773;53.174;6.614;2022-11-02T01:14:47;4.45;;;0.77;;
61840;SDS011;47773;53.174;6.614;2022-11-02T01:17:13;3.08;;;0.65;;
61840;SDS011;47773;53.174;6.614;2022-11-02T01:19:39;3.88;;;0.70;;
61840;SDS011;47773;53.174;6.614;2022-11-02T01:22:05;5.35;;;0.75;;
61840;SDS011;47773;53.174;6.614;2022-11-02T01:24:31;3.78;;;0.60;;
61840;SDS011;47773;53.174;6.614;2022-11-02T01:26:56;2.88;;;0.50;;
61840;SDS011;47773;53.174;6.614;2022-11-02T01:29:22;1.27;;;0.38;;
61840;SDS011;47773;53.174;6.614;2022-11-02T01:31:47;7.22;;;0.80;;
61840;SDS011;47773;53.174;6.614;2022-11-02T01:34:13;3.90;;;0.68;;
61840;SDS011;47773;53.174;6.614;2022-11-02T01:36:39;3.30;;;0.50;;
61840;SDS011;47773;53.174;6.614;2022-11-02T01:39:05;2.38;;;0.32;;
61840;SDS011;47773;53.174;6.614;2022-11-02T01:41:31;3.85;;;0.60;;
61840;SDS011;47773;53.174;6.614;2022-11-02T01:43:57;1.35;;;0.38;;
61840;SDS011;47773;53.174;6.614;2022-11-02T01:46:38;4.10;;;0.60;;
61840;SDS011;47773;53.174;6.614;2022-11-02T01:49:08;3.20;;;0.50;;
61840;SDS011;47773;53.174;6.614;2022-11-02T01:51:56;2.20;;;0.68;;
61840;SDS011;47773;53.174;6.614;2022-11-02T01:54:25;4.30;;;0.82;;
61840;SDS011;47773;53.174;6.614;2022-11-02T01:56:56;5.32;;;0.52;;
61840;SDS011;47773;53.174;6.614;2022-11-02T01:59:27;5.93;;;0.60;;
61840;SDS011;47773;53.174;6.614;2022-11-02T02:01:57;2.20;;;0.73;;
61840;SDS011;47773;53.174;6.614;2022-11-02T02:04:22;5.22;;;0.77;;
61840;SDS011;47773;53.174;6.614;2022-11-02T02:06:49;5.18;;;1.00;;
61840;SDS011;47773;53.174;6.614;2022-11-02T02:09:16;5.35;;;0.68;;
61840;SDS011;47773;53.174;6.614;2022-11-02T02:11:43;1.95;;;0.50;;
61840;SDS011;47773;53.174;6.614;2022-11-02T02:14:09;3.47;;;0.70;;
61840;SDS011;47773;53.174;6.614;2022-11-02T02:24:43;5.90;;;0.98;;
61840;SDS011;47773;53.174;6.614;2022-11-02T02:32:24;10.48;;;1.30;;
61840;SDS011;47773;53.174;6.614;2022-11-02T02:37:55;5.70;;;1.20;;
61840;SDS011;47773;53.174;6.614;2022-11-02T02:40:35;10.15;;;1.50;;
61840;SDS011;47773;53.174;6.614;2022-11-02T02:45:43;10.15;;;1.98;;
61840;SDS011;47773;53.174;6.614;2022-11-02T02:48:17;5.95;;;1.33;;
61840;SDS011;47773;53.174;6.614;2022-11-02T02:50:46;10.02;;;1.70;;
61840;SDS011;47773;53.174;6.614;2022-11-02T02:53:21;7.85;;;1.60;;
61840;SDS011;47773;53.174;6.614;2022-11-02T02:55:51;10.13;;;1.73;;
61840;SDS011;47773;53.174;6.614;2022-11-02T02:58:19;12.48;;;1.80;;
61840;SDS011;47773;53.174;6.614;2022-11-02T03:00:48;9.20;;;1.30;;
61840;SDS011;47773;53.174;6.614;2022-11-02T03:03:18;7.05;;;1.17;;
61840;SDS011;47773;53.174;6.614;2022-11-02T03:06:04;6.22;;;0.80;;
61840;SDS011;47773;53.174;6.614;2022-11-02T03:09:06;7.57;;;0.95;;
61840;SDS011;47773;53.174;6.614;2022-11-02T03:21:21;3.90;;;1.25;;
61840;SDS011;47773;53.174;6.614;2022-11-02T03:23:34;3.90;;;0.63;;
61840;SDS011;47773;53.174;6.614;2022-11-02T03:31:59;6.00;;;0.57;;
61840;SDS011;47773;53.174;6.614;2022-11-02T03:34:40;3.75;;;0.85;;
61840;SDS011;47773;53.174;6.614;2022-11-02T03:37:21;4.47;;;0.70;;
61840;SDS011;47773;53.174;6.614;2022-11-02T03:39:50;7.93;;;1.25;;
61840;SDS011;47773;53.174;6.614;2022-11-02T03:42:20;3.67;;;0.60;;
61840;SDS011;47773;53.174;6.614;2022-11-02T03:44:51;5.70;;;0.57;;
61840;SDS011;47773;53.174;6.614;2022-11-02T03:47:25;3.33;;;0.70;;
61840;SDS011;47773;53.174;6.614;2022-11-02T03:49:55;3.85;;;0.80;;
61840;SDS011;47773;53.174;6.614;2022-11-02T03:52:23;8.27;;;1.25;;
61840;SDS011;47773;53.174;6.614;2022-11-02T03:57:21;5.07;;;0.90;;
61840;SDS011;47773;53.174;6.614;2022-11-02T03:59:51;2.63;;;0.80;;
61840;SDS011;47773;53.174;6.614;2022-11-02T04:02:17;10.70;;;1.33;;
61840;SDS011;47773;53.174;6.614;2022-11-02T04:04:50;5.25;;;0.77;;
61840;SDS011;47773;53.174;6.614;2022-11-02T04:07:18;9.73;;;1.13;;
61840;SDS011;47773;53.174;6.614;2022-11-02T04:09:50;10.70;;;1.10;;
61840;SDS011;47773;53.174;6.614;2022-11-02T04:12:15;7.15;;;1.00;;
61840;SDS011;47773;53.174;6.614;2022-11-02T04:15:00;7.75;;;1.25;;
61840;SDS011;47773;53.174;6.614;2022-11-02T04:17:25;6.38;;;1.20;;
61840;SDS011;47773;53.174;6.614;2022-11-02T04:20:10;6.30;;;0.77;;
61840;SDS011;47773;53.174;6.614;2022-11-02T04:22:36;7.75;;;1.15;;
61840;SDS011;47773;53.174;6.614;2022-11-02T04:25:20;6.35;;;0.95;;
61840;SDS011;47773;53.174;6.614;2022-11-02T04:27:48;5.78;;;0.98;;
61840;SDS011;47773;53.174;6.614;2022-11-02T04:30:18;5.68;;;1.00;;
61840;SDS011;47773;53.174;6.614;2022-11-02T04:32:46;5.35;;;0.70;;
61840;SDS011;47773;53.174;6.614;2022-11-02T04:35:33;4.90;;;0.70;;
61840;SDS011;47773;53.174;6.614;2022-11-02T04:37:59;5.07;;;0.80;;
61840;SDS011;47773;53.174;6.614;2022-11-02T04:40:43;9.50;;;1.02;;
61840;SDS011;47773;53.174;6.614;2022-11-02T04:43:09;8.63;;;1.23;;
61840;SDS011;47773;53.174;6.614;2022-11-02T04:45:35;6.10;;;0.93;;
61840;SDS011;47773;53.174;6.614;2022-11-02T04:48:04;6.97;;;1.30;;
61840;SDS011;47773;53.174;6.614;2022-11-02T04:50:31;5.80;;;0.70;;
61840;SDS011;47773;53.174;6.614;2022-11-02T04:52:58;7.15;;;1.15;;
61840;SDS011;47773;53.174;6.614;2022-11-02T04:55:25;9.77;;;0.73;;
61840;SDS011;47773;53.174;6.614;2022-11-02T04:57:51;6.78;;;0.80;;
61840;SDS011;47773;53.174;6.614;2022-11-02T05:00:17;5.70;;;0.77;;
61840;SDS011;47773;53.174;6.614;2022-11-02T05:02:47;7.22;;;0.80;;
61840;SDS011;47773;53.174;6.614;2022-11-02T05:05:14;9.35;;;1.00;;
61840;SDS011;47773;53.174;6.614;2022-11-02T05:07:43;9.20;;;0.90;;
61840;SDS011;47773;53.174;6.614;2022-11-02T05:10:09;9.02;;;1.20;;
61840;SDS011;47773;53.174;6.614;2022-11-02T05:12:34;13.23;;;1.27;;
61840;SDS011;47773;53.174;6.614;2022-11-02T05:15:00;6.72;;;1.00;;
61840;SDS011;47773;53.174;6.614;2022-11-02T05:17:27;8.98;;;1.00;;
61840;SDS011;47773;53.174;6.614;2022-11-02T05:19:52;8.32;;;1.10;;
61840;SDS011;47773;53.174;6.614;2022-11-02T05:22:18;6.97;;;1.23;;
61840;SDS011;47773;53.174;6.614;2022-11-02T05:24:45;6.63;;;1.27;;
61840;SDS011;47773;53.174;6.614;2022-11-02T05:27:10;14.05;;;1.40;;
61840;SDS011;47773;53.174;6.614;2022-11-02T05:29:36;6.38;;;1.10;;
61840;SDS011;47773;53.174;6.614;2022-11-02T05:32:02;4.20;;;1.10;;
61840;SDS011;47773;53.174;6.614;2022-11-02T05:34:27;7.35;;;1.27;;
61840;SDS011;47773;53.174;6.614;2022-11-02T05:36:53;7.97;;;1.35;;
61840;SDS011;47773;53.174;6.614;2022-11-02T05:39:19;8.38;;;1.50;;
61840;SDS011;47773;53.174;6.614;2022-11-02T05:41:44;11.55;;;1.63;;
61840;SDS011;47773;53.174;6.614;2022-11-02T05:44:10;7.47;;;1.40;;
61840;SDS011;47773;53.174;6.614;2022-11-02T05:46:35;10.10;;;1.42;;
61840;SDS011;47773;53.174;6.614;2022-11-02T05:49:01;11.32;;;1.50;;
61840;SDS011;47773;53.174;6.614;2022-11-02T05:51:27;8.73;;;1.42;;
61840;SDS011;47773;53.174;6.614;2022-11-02T05:53:52;9.32;;;1.50;;
61840;SDS011;47773;53.174;6.614;2022-11-02T05:56:18;6.35;;;2.10;;
61840;SDS011;47773;53.174;6.614;2022-11-02T05:58:43;10.30;;;1.80;;
61840;SDS011;47773;53.174;6.614;2022-11-02T06:01:09;9.10;;;1.92;;
61840;SDS011;47773;53.174;6.614;2022-11-02T06:03:35;8.00;;;1.50;;
61840;SDS011;47773;53.174;6.614;2022-11-02T06:06:05;8.73;;;1.30;;
61840;SDS011;47773;53.174;6.614;2022-11-02T06:08:34;10.70;;;1.45;;
61840;SDS011;47773;53.174;6.614;2022-11-02T06:11:05;13.82;;;1.55;;
61840;SDS011;47773;53.174;6.614;2022-11-02T06:13:31;13.35;;;1.63;;
61840;SDS011;47773;53.174;6.614;2022-11-02T06:15:58;12.18;;;1.35;;
61840;SDS011;47773;53.174;6.614;2022-11-02T06:18:24;8.68;;;1.30;;
61840;SDS011;47773;53.174;6.614;2022-11-02T06:20:50;9.30;;;1.50;;
61840;SDS011;47773;53.174;6.614;2022-11-02T06:23:15;12.80;;;1.70;;
61840;SDS011;47773;53.174;6.614;2022-11-02T06:25:42;8.32;;;1.40;;
61840;SDS011;47773;53.174;6.614;2022-11-02T06:28:14;10.20;;;1.55;;
61840;SDS011;47773;53.174;6.614;2022-11-02T06:30:41;10.73;;;1.75;;
61840;SDS011;47773;53.174;6.614;2022-11-02T06:33:07;9.32;;;1.20;;
61840;SDS011;47773;53.174;6.614;2022-11-02T06:35:32;7.18;;;1.38;;
61840;SDS011;47773;53.174;6.614;2022-11-02T06:37:58;9.95;;;1.40;;
61840;SDS011;47773;53.174;6.614;2022-11-02T06:40:23;6.75;;;1.23;;
61840;SDS011;47773;53.174;6.614;2022-11-02T06:42:53;10.80;;;1.38;;
61840;SDS011;47773;53.174;6.614;2022-11-02T06:45:25;7.88;;;1.33;;
61840;SDS011;47773;53.174;6.614;2022-11-02T06:47:51;10.50;;;1.73;;
61840;SDS011;47773;53.174;6.614;2022-11-02T06:50:16;10.68;;;1.40;;
61840;SDS011;47773;53.174;6.614;2022-11-02T06:52:42;12.80;;;1.40;;
61840;SDS011;47773;53.174;6.614;2022-11-02T06:55:13;6.78;;;1.13;;
61840;SDS011;47773;53.174;6.614;2022-11-02T06:57:40;6.50;;;1.23;;
61840;SDS011;47773;53.174;6.614;2022-11-02T07:00:07;13.45;;;1.67;;
61840;SDS011;47773;53.174;6.614;2022-11-02T07:02:36;10.15;;;1.33;;
61840;SDS011;47773;53.174;6.614;2022-11-02T07:05:02;13.90;;;1.85;;
61840;SDS011;47773;53.174;6.614;2022-11-02T07:07:28;7.57;;;1.50;;
61840;SDS011;47773;53.174;6.614;2022-11-02T07:09:53;6.20;;;1.60;;
61840;SDS011;47773;53.174;6.614;2022-11-02T07:12:19;17.10;;;1.80;;
61840;SDS011;47773;53.174;6.614;2022-11-02T07:14:44;8.43;;;1.80;;
61840;SDS011;47773;53.174;6.614;2022-11-02T07:17:10;8.52;;;1.63;;
61840;SDS011;47773;53.174;6.614;2022-11-02T07:19:36;7.05;;;1.08;;
61840;SDS011;47773;53.174;6.614;2022-11-02T07:22:01;13.65;;;1.75;;
61840;SDS011;47773;53.174;6.614;2022-11-02T07:24:27;12.02;;;1.70;;
61840;SDS011;47773;53.174;6.614;2022-11-02T07:26:53;12.75;;;1.83;;
61840;SDS011;47773;53.174;6.614;2022-11-02T07:29:19;11.82;;;1.33;;
61840;SDS011;47773;53.174;6.614;2022-11-02T07:31:44;13.40;;;1.55;;
61840;SDS011;47773;53.174;6.614;2022-11-02T07:34:10;9.50;;;1.65;;
61840;SDS011;47773;53.174;6.614;2022-11-02T07:36:36;7.45;;;1.30;;
61840;SDS011;47773;53.174;6.614;2022-11-02T07:39:02;7.93;;;1.17;;
61840;SDS011;47773;53.174;6.614;2022-11-02T07:41:28;8.88;;;1.50;;
61840;SDS011;47773;53.174;6.614;2022-11-02T07:43:54;9.65;;;1.42;;
61840;SDS011;47773;53.174;6.614;2022-11-02T07:46:19;8.38;;;1.25;;
61840;SDS011;47773;53.174;6.614;2022-11-02T07:48:45;10.43;;;1.10;;
61840;SDS011;47773;53.174;6.614;2022-11-02T07:51:12;20.35;;;1.10;;
61840;SDS011;47773;53.174;6.614;2022-11-02T07:53:38;10.48;;;0.80;;
61840;SDS011;47773;53.174;6.614;2022-11-02T07:56:04;5.63;;;1.00;;
61840;SDS011;47773;53.174;6.614;2022-11-02T07:58:30;5.38;;;0.75;;
61840;SDS011;47773;53.174;6.614;2022-11-02T08:00:56;7.90;;;0.75;;
61840;SDS011;47773;53.174;6.614;2022-11-02T08:03:23;6.78;;;0.80;;
61840;SDS011;47773;53.174;6.614;2022-11-02T08:05:49;6.97;;;0.60;;
61840;SDS011;47773;53.174;6.614;2022-11-02T08:08:15;9.05;;;0.90;;
61840;SDS011;47773;53.174;6.614;2022-11-02T08:10:43;7.10;;;1.13;;
61840;SDS011;47773;53.174;6.614;2022-11-02T08:13:11;10.57;;;1.73;;
61840;SDS011;47773;53.174;6.614;2022-11-02T08:15:51;6.22;;;0.70;;
61840;SDS011;47773;53.174;6.614;2022-11-02T08:18:21;4.50;;;0.70;;
61840;SDS011;47773;53.174;6.614;2022-11-02T08:20:53;6.13;;;0.90;;
61840;SDS011;47773;53.174;6.614;2022-11-02T08:23:19;4.47;;;0.70;;
61840;SDS011;47773;53.174;6.614;2022-11-02T08:25:46;4.68;;;0.80;;
61840;SDS011;47773;53.174;6.614;2022-11-02T08:28:17;9.75;;;0.75;;
61840;SDS011;47773;53.174;6.614;2022-11-02T08:30:44;8.75;;;1.13;;
61840;SDS011;47773;53.174;6.614;2022-11-02T08:33:10;7.30;;;0.85;;
61840;SDS011;47773;53.174;6.614;2022-11-02T08:35:39;5.82;;;1.08;;
61840;SDS011;47773;53.174;6.614;2022-11-02T08:38:06;6.93;;;0.85;;
61840;SDS011;47773;53.174;6.614;2022-11-02T08:40:32;12.55;;;1.00;;
61840;SDS011;47773;53.174;6.614;2022-11-02T08:42:59;9.60;;;1.50;;
61840;SDS011;47773;53.174;6.614;2022-11-02T08:45:27;6.05;;;0.88;;
61840;SDS011;47773;53.174;6.614;2022-11-02T08:47:54;6.22;;;0.90;;
61840;SDS011;47773;53.174;6.614;2022-11-02T08:50:20;8.40;;;0.90;;
61840;SDS011;47773;53.174;6.614;2022-11-02T08:52:47;5.72;;;1.20;;
61840;SDS011;47773;53.174;6.614;2022-11-02T08:55:12;7.93;;;0.98;;
61840;SDS011;47773;53.174;6.614;2022-11-02T08:57:45;9.48;;;1.00;;
61840;SDS011;47773;53.174;6.614;2022-11-02T09:00:12;8.63;;;1.45;;
61840;SDS011;47773;53.174;6.614;2022-11-02T09:02:38;7.38;;;0.80;;
61840;SDS011;47773;53.174;6.614;2022-11-02T09:05:04;6.13;;;0.65;;
61840;SDS011;47773;53.174;6.614;2022-11-02T09:07:30;5.95;;;0.85;;
61840;SDS011;47773;53.174;6.614;2022-11-02T09:09:56;7.72;;;1.00;;
61840;SDS011;47773;53.174;6.614;2022-11-02T09:12:21;5.95;;;0.80;;
61840;SDS011;47773;53.174;6.614;2022-11-02T09:14:47;8.77;;;1.05;;
61840;SDS011;47773;53.174;6.614;2022-11-02T09:17:13;11.43;;;1.45;;
61840;SDS011;47773;53.174;6.614;2022-11-02T09:19:38;9.73;;;1.20;;
61840;SDS011;47773;53.174;6.614;2022-11-02T09:22:04;11.15;;;1.50;;
61840;SDS011;47773;53.174;6.614;2022-11-02T09:24:29;7.03;;;0.80;;
61840;SDS011;47773;53.174;6.614;2022-11-02T09:26:55;9.85;;;1.27;;
61840;SDS011;47773;53.174;6.614;2022-11-02T09:29:20;9.88;;;0.90;;
61840;SDS011;47773;53.174;6.614;2022-11-02T09:31:46;7.72;;;1.35;;
61840;SDS011;47773;53.174;6.614;2022-11-02T09:34:13;8.02;;;1.25;;
61840;SDS011;47773;53.174;6.614;2022-11-02T09:36:39;11.93;;;1.02;;
61840;SDS011;47773;53.174;6.614;2022-11-02T09:39:05;7.93;;;0.95;;
61840;SDS011;47773;53.174;6.614;2022-11-02T09:41:45;7.97;;;1.17;;
61840;SDS011;47773;53.174;6.614;2022-11-02T09:44:23;11.40;;;1.55;;
61840;SDS011;47773;53.174;6.614;2022-11-02T09:49:21;12.55;;;0.90;;
61840;SDS011;47773;53.174;6.614;2022-11-02T09:51:49;7.70;;;1.10;;
61840;SDS011;47773;53.174;6.614;2022-11-02T09:54:38;10.85;;;1.13;;
61840;SDS011;47773;53.174;6.614;2022-11-02T09:57:13;6.95;;;0.85;;
61840;SDS011;47773;53.174;6.614;2022-11-02T09:59:43;11.60;;;1.65;;
61840;SDS011;47773;53.174;6.614;2022-11-02T10:08:04;10.52;;;1.38;;
61840;SDS011;47773;53.174;6.614;2022-11-02T10:10:58;10.95;;;1.75;;
61840;SDS011;47773;53.174;6.614;2022-11-02T10:16:31;5.82;;;1.48;;
61840;SDS011;47773;53.174;6.614;2022-11-02T10:19:04;9.45;;;1.23;;
61840;SDS011;47773;53.174;6.614;2022-11-02T10:21:37;14.18;;;1.48;;
61840;SDS011;47773;53.174;6.614;2022-11-02T10:24:09;7.85;;;1.13;;
61840;SDS011;47773;53.174;6.614;2022-11-02T10:26:58;9.18;;;1.10;;
61840;SDS011;47773;53.174;6.614;2022-11-02T10:32:10;5.75;;;1.10;;
61840;SDS011;47773;53.174;6.614;2022-11-02T10:34:37;9.20;;;0.82;;
61840;SDS011;47773;53.174;6.614;2022-11-02T10:45:34;10.15;;;1.48;;
61840;SDS011;47773;53.174;6.614;2022-11-02T10:53:49;12.60;;;1.38;;
61840;SDS011;47773;53.174;6.614;2022-11-02T10:56:17;11.50;;;0.98;;
61840;SDS011;47773;53.174;6.614;2022-11-02T10:58:48;11.02;;;1.27;;
61840;SDS011;47773;53.174;6.614;2022-11-02T11:01:25;12.20;;;1.60;;
61840;SDS011;47773;53.174;6.614;2022-11-02T11:03:59;8.20;;;1.45;;
61840;SDS011;47773;53.174;6.614;2022-11-02T11:06:30;12.32;;;1.25;;
61840;SDS011;47773;53.174;6.614;2022-11-02T11:09:06;9.48;;;0.85;;
61840;SDS011;47773;53.174;6.614;2022-11-02T11:11:41;9.98;;;1.05;;
61840;SDS011;47773;53.174;6.614;2022-11-02T11:14:18;12.65;;;1.10;;
61840;SDS011;47773;53.174;6.614;2022-11-02T11:16:47;8.18;;;0.90;;
61840;SDS011;47773;53.174;6.614;2022-11-02T11:21:58;11.98;;;1.08;;
61840;SDS011;47773;53.174;6.614;2022-11-02T11:24:28;8.23;;;1.38;;
61840;SDS011;47773;53.174;6.614;2022-11-02T11:29:38;11.27;;;1.30;;
61840;SDS011;47773;53.174;6.614;2022-11-02T11:32:13;11.88;;;1.05;;
61840;SDS011;47773;53.174;6.614;2022-11-02T11:34:41;5.63;;;0.85;;
61840;SDS011;47773;53.174;6.614;2022-11-02T11:37:11;9.40;;;1.10;;
61840;SDS011;47773;53.174;6.614;2022-11-02T11:39:41;6.50;;;1.23;;
61840;SDS011;47773;53.174;6.614;2022-11-02T11:42:16;15.82;;;1.58;;
61840;SDS011;47773;53.174;6.614;2022-11-02T11:44:45;8.52;;;1.08;;
61840;SDS011;47773;53.174;6.614;2022-11-02T11:49:50;11.32;;;1.33;;
61840;SDS011;47773;53.174;6.614;2022-11-02T11:52:27;9.48;;;0.98;;
61840;SDS011;47773;53.174;6.614;2022-11-02T11:54:56;9.70;;;0.82;;
61840;SDS011;47773;53.174;6.614;2022-11-02T11:57:30;8.88;;;1.05;;
61840;SDS011;47773;53.174;6.614;2022-11-02T11:59:58;6.03;;;0.90;;
61840;SDS011;47773;53.174;6.614;2022-11-02T12:02:47;9.13;;;0.90;;
61840;SDS011;47773;53.174;6.614;2022-11-02T12:08:31;12.15;;;1.00;;
61840;SDS011;47773;53.174;6.614;2022-11-02T12:13:58;6.45;;;0.73;;
61840;SDS011;47773;53.174;6.614;2022-11-02T12:31:08;9.68;;;1.05;;
61840;SDS011;47773;53.174;6.614;2022-11-02T12:39:26;7.55;;;0.88;;
61840;SDS011;47773;53.174;6.614;2022-11-02T12:50:18;6.72;;;1.00;;
61840;SDS011;47773;53.174;6.614;2022-11-02T12:55:59;12.82;;;1.08;;
61840;SDS011;47773;53.174;6.614;2022-11-02T12:58:28;7.63;;;0.77;;
61840;SDS011;47773;53.174;6.614;2022-11-02T13:01:04;7.32;;;0.80;;
61840;SDS011;47773;53.174;6.614;2022-11-02T13:06:31;10.73;;;1.13;;
61840;SDS011;47773;53.174;6.614;2022-11-02T13:09:04;5.45;;;0.70;;
61840;SDS011;47773;53.174;6.614;2022-11-02T13:11:36;6.38;;;0.70;;
61840;SDS011;47773;53.174;6.614;2022-11-02T13:14:11;8.55;;;0.93;;
61840;SDS011;47773;53.174;6.614;2022-11-02T13:19:30;13.40;;;1.15;;
61840;SDS011;47773;53.174;6.614;2022-11-02T13:22:00;10.40;;;1.48;;
61840;SDS011;47773;53.174;6.614;2022-11-02T13:24:30;9.68;;;1.48;;
61840;SDS011;47773;53.174;6.614;2022-11-02T13:27:03;8.85;;;1.48;;
61840;SDS011;47773;53.174;6.614;2022-11-02T13:35:02;9.20;;;1.10;;
61840;SDS011;47773;53.174;6.614;2022-11-02T13:37:40;11.80;;;1.15;;
61840;SDS011;47773;53.174;6.614;2022-11-02T13:40:14;9.73;;;1.20;;
61840;SDS011;47773;53.174;6.614;2022-11-02T13:45:44;9.10;;;1.00;;
61840;SDS011;47773;53.174;6.614;2022-11-02T13:51:05;11.57;;;0.93;;
61840;SDS011;47773;53.174;6.614;2022-11-02T13:53:57;8.10;;;0.80;;
61840;SDS011;47773;53.174;6.614;2022-11-02T13:56:49;14.07;;;1.38;;
61840;SDS011;47773;53.174;6.614;2022-11-02T13:59:18;10.23;;;1.50;;
61840;SDS011;47773;53.174;6.614;2022-11-02T14:01:46;5.78;;;0.75;;
61840;SDS011;47773;53.174;6.614;2022-11-02T14:04:15;4.45;;;0.63;;
61840;SDS011;47773;53.174;6.614;2022-11-02T14:09:22;11.98;;;1.75;;
61840;SDS011;47773;53.174;6.614;2022-11-02T14:11:49;9.98;;;0.95;;
61840;SDS011;47773;53.174;6.614;2022-11-02T14:26:58;7.40;;;1.15;;
61840;SDS011;47773;53.174;6.614;2022-11-02T14:41:03;7.68;;;1.15;;
61840;SDS011;47773;53.174;6.614;2022-11-02T14:49:16;11.02;;;1.27;;
61840;SDS011;47773;53.174;6.614;2022-11-02T14:51:53;10.97;;;1.80;;
61840;SDS011;47773;53.174;6.614;2022-11-02T14:54:29;10.10;;;1.65;;
61840;SDS011;47773;53.174;6.614;2022-11-02T14:57:04;9.38;;;0.95;;
61840;SDS011;47773;53.174;6.614;2022-11-02T14:59:39;12.70;;;1.40;;
61840;SDS011;47773;53.174;6.614;2022-11-02T15:10:39;14.68;;;1.92;;
61840;SDS011;47773;53.174;6.614;2022-11-02T15:20:53;11.80;;;2.22;;
61840;SDS011;47773;53.174;6.614;2022-11-02T15:26:45;6.75;;;1.33;;
61840;SDS011;47773;53.174;6.614;2022-11-02T15:29:20;9.45;;;1.40;;
61840;SDS011;47773;53.174;6.614;2022-11-02T15:31:52;9.48;;;1.25;;
61840;SDS011;47773;53.174;6.614;2022-11-02T15:34:23;12.80;;;1.02;;
61840;SDS011;47773;53.174;6.614;2022-11-02T15:37:00;10.40;;;1.10;;
61840;SDS011;47773;53.174;6.614;2022-11-02T15:39:26;9.02;;;1.10;;
61840;SDS011;47773;53.174;6.614;2022-11-02T15:42:38;14.13;;;1.65;;
61840;SDS011;47773;53.174;6.614;2022-11-02T15:52:53;10.95;;;1.48;;
61840;SDS011;47773;53.174;6.614;2022-11-02T16:01:04;10.68;;;1.70;;
61840;SDS011;47773;53.174;6.614;2022-11-02T16:03:29;8.68;;;1.85;;
61840;SDS011;47773;53.174;6.614;2022-11-02T16:05:56;13.75;;;1.23;;
61840;SDS011;47773;53.174;6.614;2022-11-02T16:08:25;12.07;;;1.80;;
61840;SDS011;47773;53.174;6.614;2022-11-02T16:11:29;11.45;;;2.03;;
61840;SDS011;47773;53.174;6.614;2022-11-02T16:13:48;8.27;;;1.85;;
61840;SDS011;47773;53.174;6.614;2022-11-02T16:16:14;16.27;;;2.15;;
61840;SDS011;47773;53.174;6.614;2022-11-02T16:18:42;11.73;;;2.05;;
61840;SDS011;47773;53.174;6.614;2022-11-02T16:21:12;7.80;;;1.38;;
61840;SDS011;47773;53.174;6.614;2022-11-02T16:23:41;15.45;;;2.17;;
61840;SDS011;47773;53.174;6.614;2022-11-02T16:26:14;11.05;;;1.98;;
61840;SDS011;47773;53.174;6.614;2022-11-02T16:28:46;12.00;;;2.17;;
61840;SDS011;47773;53.174;6.614;2022-11-02T16:31:15;14.27;;;2.38;;
61840;SDS011;47773;53.174;6.614;2022-11-02T16:33:52;17.35;;;3.85;;
61840;SDS011;47773;53.174;6.614;2022-11-02T16:36:20;14.40;;;1.83;;
61840;SDS011;47773;53.174;6.614;2022-11-02T16:39:05;11.20;;;2.00;;
61840;SDS011;47773;53.174;6.614;2022-11-02T16:41:40;8.02;;;1.55;;
61840;SDS011;47773;53.174;6.614;2022-11-02T16:44:30;13.20;;;2.67;;
61840;SDS011;47773;53.174;6.614;2022-11-02T16:49:32;11.10;;;2.47;;
61840;SDS011;47773;53.174;6.614;2022-11-02T16:52:00;9.43;;;2.30;;
61840;SDS011;47773;53.174;6.614;2022-11-02T16:54:42;8.82;;;2.15;;
61840;SDS011;47773;53.174;6.614;2022-11-02T16:59:34;9.45;;;2.45;;
61840;SDS011;47773;53.174;6.614;2022-11-02T17:02:01;15.80;;;2.42;;
61840;SDS011;47773;53.174;6.614;2022-11-02T17:04:29;9.38;;;2.13;;
61840;SDS011;47773;53.174;6.614;2022-11-02T17:06:57;12.60;;;2.50;;
61840;SDS011;47773;53.174;6.614;2022-11-02T17:09:36;12.00;;;2.92;;
61840;SDS011;47773;53.174;6.614;2022-11-02T17:12:06;9.38;;;2.17;;
61840;SDS011;47773;53.174;6.614;2022-11-02T17:14:42;13.02;;;2.20;;
61840;SDS011;47773;53.174;6.614;2022-11-02T17:19:54;13.43;;;2.22;;
61840;SDS011;47773;53.174;6.614;2022-11-02T17:25:32;15.45;;;2.60;;
61840;SDS011;47773;53.174;6.614;2022-11-02T17:28:03;13.02;;;2.45;;
61840;SDS011;47773;53.174;6.614;2022-11-02T17:30:49;13.43;;;2.65;;
61840;SDS011;47773;53.174;6.614;2022-11-02T17:35:49;10.00;;;2.58;;
61840;SDS011;47773;53.174;6.614;2022-11-02T17:38:16;17.23;;;3.00;;
61840;SDS011;47773;53.174;6.614;2022-11-02T17:40:48;11.77;;;3.20;;
61840;SDS011;47773;53.174;6.614;2022-11-02T17:43:16;9.88;;;3.15;;
61840;SDS011;47773;53.174;6.614;2022-11-02T17:45:43;9.75;;;2.63;;
61840;SDS011;47773;53.174;6.614;2022-11-02T17:48:09;16.98;;;1.90;;
61840;SDS011;47773;53.174;6.614;2022-11-02T17:50:38;11.77;;;2.35;;
61840;SDS011;47773;53.174;6.614;2022-11-02T17:53:05;14.45;;;2.20;;
61840;SDS011;47773;53.174;6.614;2022-11-02T17:55:34;13.77;;;2.28;;
61840;SDS011;47773;53.174;6.614;2022-11-02T17:58:01;10.40;;;1.58;;
61840;SDS011;47773;53.174;6.614;2022-11-02T18:00:27;11.07;;;1.80;;
61840;SDS011;47773;53.174;6.614;2022-11-02T18:02:53;10.52;;;1.80;;
61840;SDS011;47773;53.174;6.614;2022-11-02T18:05:22;9.98;;;1.45;;
61840;SDS011;47773;53.174;6.614;2022-11-02T18:07:49;11.20;;;2.08;;
61840;SDS011;47773;53.174;6.614;2022-11-02T18:10:16;10.18;;;1.88;;
61840;SDS011;47773;53.174;6.614;2022-11-02T18:12:43;15.98;;;2.10;;
61840;SDS011;47773;53.174;6.614;2022-11-02T18:15:16;12.90;;;2.10;;
61840;SDS011;47773;53.174;6.614;2022-11-02T18:17:46;17.92;;;2.10;;
61840;SDS011;47773;53.174;6.614;2022-11-02T18:20:12;9.55;;;2.00;;
61840;SDS011;47773;53.174;6.614;2022-11-02T18:22:39;18.35;;;3.40;;
61840;SDS011;47773;53.174;6.614;2022-11-02T18:25:05;11.70;;;2.10;;